createdAt,value
2019-02-05T00:01:44.218Z,99196.69
2019-02-05T00:04:33.863Z,99184.25
2019-02-05T00:07:05.933Z,99181.26
2019-02-05T00:09:37.570Z,99170.98
2019-02-05T00:12:08.449Z,99158.11
2019-02-05T00:14:58.020Z,99154.66
2019-02-05T00:17:35.498Z,99152.96
2019-02-05T00:20:49.677Z,99159.38
2019-02-05T00:23:39.279Z,98994.27
2019-02-05T00:26:09.792Z,99156.38
2019-02-05T00:28:59.388Z,99158.09
2019-02-05T00:31:48.659Z,99171.80
2019-02-05T00:34:38.267Z,99180.38
2019-02-05T00:37:28.561Z,99183.36
2019-02-05T00:40:18.281Z,99184.64
2019-02-05T00:43:07.499Z,99191.09
2019-02-05T00:45:57.006Z,99194.53
2019-02-05T00:48:46.593Z,99188.95
2019-02-05T00:54:00.030Z,99039.69
2019-02-05T00:56:30.270Z,99201.78
2019-02-05T00:59:00.753Z,99202.65
2019-02-05T01:01:31.151Z,99192.80
2019-02-05T01:04:02.678Z,99185.55
2019-02-05T01:06:32.966Z,99184.73
2019-02-05T01:09:04.498Z,99183.02
2019-02-05T01:11:34.756Z,99180.02
2019-02-05T01:14:06.110Z,99182.58
2019-02-05T01:16:36.417Z,99173.55
2019-02-05T01:19:06.917Z,99177.85
2019-02-05T01:21:39.668Z,99176.16
2019-02-05T01:24:09.913Z,99168.45
2019-02-05T01:26:40.524Z,99170.60
2019-02-05T01:29:10.914Z,99171.05
2019-02-05T01:31:41.592Z,99174.49
2019-02-05T01:34:11.838Z,99165.08
2019-02-05T01:36:42.261Z,99164.66
2019-02-05T01:39:12.568Z,99165.93
2019-02-05T01:41:43.188Z,99164.65
2019-02-05T01:44:13.511Z,99167.23
2019-02-05T01:46:43.757Z,99168.08
2019-02-05T01:49:14.025Z,99159.95
2019-02-05T01:51:44.349Z,99161.66
2019-02-05T01:54:16.356Z,99152.23
2019-02-05T01:56:47.850Z,99132.99
2019-02-05T01:59:18.107Z,99143.25
2019-02-05T02:01:48.425Z,99132.98
2019-02-05T02:04:18.663Z,99132.57
2019-02-05T02:06:49.404Z,99129.12
2019-02-05T02:09:22.737Z,99126.98
2019-02-05T02:11:53.644Z,99129.14
2019-02-05T02:14:24.034Z,99131.28
2019-02-05T02:16:54.466Z,99123.98
2019-02-05T02:19:24.725Z,99128.70
2019-02-05T02:22:02.991Z,99129.58
2019-02-05T02:24:33.311Z,99131.27
2019-02-05T02:27:03.543Z,99126.14
2019-02-05T02:29:33.804Z,99118.88
2019-02-05T02:32:05.007Z,99118.88
2019-02-05T02:34:35.310Z,99122.28
2019-02-05T02:37:05.530Z,99119.28
2019-02-05T02:39:36.217Z,99104.31
2019-02-05T02:42:06.567Z,99109.00
2019-02-05T02:44:36.965Z,99111.58
2019-02-05T02:47:07.799Z,99116.29
2019-02-05T02:49:38.036Z,99115.41
2019-02-05T02:52:08.319Z,99107.28
2019-02-05T02:54:38.582Z,99106.44
2019-02-05T02:57:09.160Z,99105.16
2019-02-05T02:59:39.402Z,99092.31
2019-02-05T03:02:09.773Z,99088.91
2019-02-05T03:04:40.333Z,99086.31
2019-02-05T03:07:44.645Z,99091.46
2019-02-05T03:10:22.080Z,99098.73
2019-02-05T03:12:52.440Z,99095.73
2019-02-05T03:15:22.743Z,99088.47
2019-02-05T03:17:53.025Z,99087.16
2019-02-05T03:20:24.419Z,99083.75
2019-02-05T03:22:55.007Z,99085.03
2019-02-05T03:25:26.187Z,99086.30
2019-02-05T03:27:56.525Z,99096.59
2019-02-05T03:30:27.179Z,99094.88
2019-02-05T03:32:57.854Z,99092.73
2019-02-05T03:35:28.715Z,99102.13
2019-02-05T03:37:59.242Z,99116.25
2019-02-05T03:41:08.235Z,99114.11
2019-02-05T03:43:44.180Z,99117.09
2019-02-05T03:46:15.579Z,99121.78
2019-02-05T03:48:49.871Z,99119.19
2019-02-05T03:52:04.575Z,99109.36
2019-02-05T03:55:14.986Z,99114.48
2019-02-05T03:58:22.335Z,99115.77
2019-02-05T04:01:39.919Z,99122.59
2019-02-05T04:04:44.757Z,99124.73
2019-02-05T04:07:46.259Z,99119.58
2019-02-05T04:11:09.347Z,99125.98
2019-02-05T04:14:32.279Z,99115.33
2019-02-05T04:17:18.832Z,99103.38
2019-02-05T04:20:36.023Z,99116.14
2019-02-05T04:23:33.321Z,99123.40
2019-02-05T04:26:25.017Z,99129.39
2019-02-05T04:29:34.791Z,99120.83
2019-02-05T04:32:22.133Z,99130.65
2019-02-05T04:35:37.306Z,99128.94
2019-02-05T04:38:43.003Z,99132.33
2019-02-05T04:41:54.865Z,99144.31
2019-02-05T04:45:04.946Z,99138.78
2019-02-05T04:47:58.360Z,99143.88
2019-02-05T04:51:21.599Z,99143.80
2019-02-05T04:54:31.318Z,99148.92
2019-02-05T04:57:39.947Z,99145.56
2019-02-05T05:00:35.198Z,99142.56
2019-02-05T05:03:51.991Z,99142.53
2019-02-05T05:07:17.830Z,99149.41
2019-02-05T05:09:58.143Z,99140.84
2019-02-05T05:12:29.747Z,99142.98
2019-02-05T05:15:00.519Z,99149.77
2019-02-05T05:17:30.895Z,99154.87
2019-02-05T05:20:01.447Z,99155.28
2019-02-05T05:22:32.201Z,99154.42
2019-02-05T05:25:02.692Z,99154.44
2019-02-05T05:27:33.641Z,99162.95
2019-02-05T05:30:06.372Z,99162.53
2019-02-05T05:32:36.688Z,99156.98
2019-02-05T05:35:09.104Z,99158.72
2019-02-05T05:37:40.774Z,99168.94
2019-02-05T05:40:11.510Z,99174.06
2019-02-05T05:42:41.742Z,99175.33
2019-02-05T05:45:14.348Z,99173.19
2019-02-05T05:47:49.208Z,99173.98
2019-02-05T05:50:21.284Z,99173.52
2019-02-05T05:52:52.489Z,99178.73
2019-02-05T05:55:24.183Z,99180.03
2019-02-05T05:57:54.475Z,99176.59
2019-02-05T06:00:24.865Z,99178.69
2019-02-05T06:02:55.200Z,99179.10
2019-02-05T06:05:25.716Z,99177.89
2019-02-05T06:07:58.295Z,99172.32
2019-02-05T06:10:28.623Z,99176.98
2019-02-05T06:12:58.912Z,99179.13
2019-02-05T06:15:29.167Z,99181.72
2019-02-05T06:17:59.440Z,99195.73
2019-02-05T06:20:30.591Z,99198.25
2019-02-05T06:23:01.117Z,99199.58
2019-02-05T06:25:31.389Z,99204.69
2019-02-05T06:28:01.597Z,99207.73
2019-02-05T06:30:32.596Z,99205.55
2019-02-05T06:33:03.453Z,99205.11
2019-02-05T06:35:33.996Z,99216.67
2019-02-05T06:38:04.722Z,99220.08
2019-02-05T06:40:36.084Z,99218.84
2019-02-05T06:43:07.811Z,99221.81
2019-02-05T06:45:41.401Z,99228.16
2019-02-05T06:48:10.489Z,99234.95
2019-02-05T06:50:40.854Z,99240.97
2019-02-05T06:53:12.508Z,99240.59
2019-02-05T06:55:42.744Z,99239.72
2019-02-05T06:58:13.114Z,99233.70
2019-02-05T07:00:43.830Z,99240.08
2019-02-05T07:03:14.741Z,99230.30
2019-02-05T07:05:45.009Z,99236.66
2019-02-05T07:08:17.929Z,99235.35
2019-02-05T07:10:49.985Z,99237.08
2019-02-05T07:13:20.115Z,99238.39
2019-02-05T07:15:50.275Z,99241.39
2019-02-05T07:18:21.024Z,99237.97
2019-02-05T07:20:51.277Z,99249.52
2019-02-05T07:23:21.442Z,99257.56
2019-02-05T07:25:51.932Z,99261.88
2019-02-05T07:28:22.029Z,99263.66
2019-02-05T07:30:52.893Z,99268.78
2019-02-05T07:33:24.647Z,99275.21
2019-02-05T07:35:55.089Z,99268.78
2019-02-05T07:38:25.222Z,99264.97
2019-02-05T07:40:57.186Z,99270.11
2019-02-05T07:43:27.703Z,99264.61
2019-02-05T07:45:57.886Z,99260.75
2019-02-05T07:48:30.558Z,99259.00
2019-02-05T07:51:00.699Z,99255.63
2019-02-05T07:53:33.201Z,99265.50
2019-02-05T07:56:03.218Z,99271.12
2019-02-05T07:58:33.441Z,99275.38
2019-02-05T08:01:03.629Z,99280.48
2019-02-05T08:03:34.379Z,99274.15
2019-02-05T08:06:12.127Z,99274.55
2019-02-05T08:08:45.217Z,99268.13
2019-02-05T08:11:15.744Z,99264.78
2019-02-05T08:13:45.845Z,99266.55
2019-02-05T08:16:16.021Z,99267.02
2019-02-05T08:18:47.700Z,99281.56
2019-02-05T08:21:17.997Z,99283.33
2019-02-05T08:23:48.122Z,99289.77
2019-02-05T08:26:18.556Z,99272.69
2019-02-05T08:28:48.713Z,99264.17
2019-02-05T08:31:18.891Z,99259.08
2019-02-05T08:33:49.786Z,99252.70
2019-02-05T08:36:19.936Z,99254.42
2019-02-05T08:38:50.169Z,99258.31
2019-02-05T08:41:20.598Z,99265.19
2019-02-05T08:43:50.891Z,99263.06
2019-02-05T08:46:21.036Z,99262.65
2019-02-05T08:48:51.913Z,99263.49
2019-02-05T08:51:22.127Z,99272.50
2019-02-05T08:53:52.413Z,99275.97
2019-02-05T08:56:22.814Z,99272.55
2019-02-05T08:58:53.805Z,99278.98
2019-02-05T09:01:23.979Z,99285.86
2019-02-05T09:03:54.805Z,99289.28
2019-02-05T09:06:24.986Z,99293.16
2019-02-05T09:08:55.257Z,99294.02
2019-02-05T09:11:25.676Z,99299.57
2019-02-05T09:13:55.910Z,99301.61
2019-02-05T09:16:26.164Z,99302.05
2019-02-05T09:18:56.692Z,99297.34
2019-02-05T09:21:26.807Z,99293.91
2019-02-05T09:23:57.081Z,99300.34
2019-02-05T09:26:28.492Z,99294.75
2019-02-05T09:28:58.658Z,99300.29
2019-02-05T09:31:28.951Z,99301.98
2019-02-05T09:33:59.266Z,99295.12
2019-02-05T09:36:29.433Z,99298.03
2019-02-05T09:38:59.814Z,99298.83
2019-02-05T09:41:29.972Z,99298.84
2019-02-05T09:44:02.266Z,99296.26
2019-02-05T09:46:33.752Z,99297.55
2019-02-05T09:49:04.288Z,99292.77
2019-02-05T09:51:34.620Z,99300.48
2019-02-05T09:54:05.321Z,99299.52
2019-02-05T09:56:35.572Z,99303.28
2019-02-05T09:59:05.830Z,99307.57
2019-02-05T10:01:36.285Z,99312.27
2019-02-05T10:04:07.022Z,99316.48
2019-02-05T10:06:37.165Z,99314.73
2019-02-05T10:09:09.036Z,99325.02
2019-02-05T10:11:39.215Z,99318.95
2019-02-05T10:14:10.517Z,99324.49
2019-02-05T10:16:40.731Z,99327.48
2019-02-05T10:19:11.138Z,99328.27
2019-02-05T10:21:41.604Z,99313.17
2019-02-05T10:24:11.812Z,99319.95
2019-02-05T10:26:43.086Z,99316.91
2019-02-05T10:29:13.494Z,99321.95
2019-02-05T10:31:43.694Z,99314.64
2019-02-05T10:34:14.110Z,99314.18
2019-02-05T10:36:44.515Z,99313.66
2019-02-05T10:39:14.738Z,99311.36
2019-02-05T10:41:45.026Z,99306.52
2019-02-05T10:44:15.583Z,99304.66
2019-02-05T10:46:45.818Z,99293.83
2019-02-05T10:49:16.334Z,99301.11
2019-02-05T10:51:49.726Z,99295.88
2019-02-05T10:54:20.364Z,99296.97
2019-02-05T10:56:50.710Z,99300.06
2019-02-05T10:59:20.897Z,99301.78
2019-02-05T11:01:51.159Z,99304.80
2019-02-05T11:04:22.761Z,99303.47
2019-02-05T11:06:52.877Z,99304.29
2019-02-05T11:09:23.105Z,99299.51
2019-02-05T11:11:53.510Z,99299.03
2019-02-05T11:14:23.780Z,99290.36
2019-02-05T11:16:54.433Z,99289.44
2019-02-05T11:19:24.939Z,99294.07
2019-02-05T11:21:55.132Z,99293.50
2019-02-05T11:24:25.358Z,99288.27
2019-02-05T11:26:55.915Z,99287.37
2019-02-05T11:29:26.033Z,99287.76
2019-02-05T11:31:56.188Z,99280.86
2019-02-05T11:34:27.192Z,99285.02
2019-02-05T11:36:58.164Z,99283.49
2019-02-05T11:39:28.364Z,99285.77
2019-02-05T11:41:58.615Z,99282.80
2019-02-05T11:44:29.147Z,99286.34
2019-02-05T11:46:59.293Z,99286.36
2019-02-05T11:49:29.850Z,99282.14
2019-02-05T11:52:00.379Z,99285.16
2019-02-05T11:54:30.605Z,99290.44
2019-02-05T11:57:00.874Z,99289.56
2019-02-05T11:59:32.277Z,99277.86
2019-02-05T12:02:02.581Z,99273.93
2019-02-05T12:04:32.713Z,99273.73
2019-02-05T12:07:05.342Z,99270.17
2019-02-05T12:09:35.529Z,99267.42
2019-02-05T12:12:05.696Z,99268.17
2019-02-05T12:14:36.096Z,99259.52
2019-02-05T12:17:06.327Z,99253.71
2019-02-05T12:19:36.788Z,99256.20
2019-02-05T12:22:07.218Z,99256.14
2019-02-05T12:24:38.266Z,99256.09
2019-02-05T12:27:08.449Z,99251.89
2019-02-05T12:29:38.671Z,99249.41
2019-02-05T12:32:09.192Z,99250.58
2019-02-05T12:34:39.734Z,99247.88
2019-02-05T12:37:09.861Z,99251.89
2019-02-05T12:39:41.350Z,99246.14
2019-02-05T12:42:13.904Z,99249.80
2019-02-05T12:44:44.203Z,99248.48
2019-02-05T12:47:14.404Z,99252.73
2019-02-05T12:49:45.469Z,99255.33
2019-02-05T12:52:15.763Z,99252.86
2019-02-05T12:54:46.080Z,99251.16
2019-02-05T12:57:16.507Z,99246.70
2019-02-05T12:59:49.822Z,99251.27
2019-02-05T13:02:20.209Z,99245.08
2019-02-05T13:04:51.736Z,99239.96
2019-02-05T13:07:21.886Z,99246.02
2019-02-05T13:09:52.172Z,99246.31
2019-02-05T13:12:24.143Z,99243.36
2019-02-05T13:14:54.923Z,99234.86
2019-02-05T13:17:25.404Z,99239.98
2019-02-05T13:19:55.731Z,99238.98
2019-02-05T13:22:26.226Z,99239.94
2019-02-05T13:24:56.805Z,99237.41
2019-02-05T13:27:27.195Z,99236.98
2019-02-05T13:29:57.794Z,99235.03
2019-02-05T13:32:28.245Z,99234.09
2019-02-05T13:35:02.867Z,99226.38
2019-02-05T13:37:33.044Z,99227.77
2019-02-05T13:40:03.295Z,99224.41
2019-02-05T13:42:33.475Z,99224.13
2019-02-05T13:45:05.546Z,99228.47
2019-02-05T13:47:35.820Z,99225.98
2019-02-05T13:50:08.542Z,99225.81
2019-02-05T13:52:40.061Z,99229.94
2019-02-05T13:55:11.125Z,99229.83
2019-02-05T13:57:41.595Z,99226.92
2019-02-05T14:00:18.206Z,99228.09
2019-02-05T14:02:48.344Z,99229.59
2019-02-05T14:05:18.922Z,99226.64
2019-02-05T14:07:49.558Z,99228.29
2019-02-05T14:10:22.779Z,99228.73
2019-02-05T14:12:54.017Z,99239.70
2019-02-05T14:15:26.120Z,99233.23
2019-02-05T14:17:56.264Z,99232.79
2019-02-05T14:20:26.831Z,99230.18
2019-02-05T14:22:59.191Z,99235.76
2019-02-05T14:25:29.505Z,99235.20
2019-02-05T14:28:00.005Z,99237.80
2019-02-05T14:30:32.717Z,99240.52
2019-02-05T14:33:03.283Z,99238.75
2019-02-05T14:35:34.884Z,99235.43
2019-02-05T14:38:05.715Z,99235.48
2019-02-05T14:40:35.859Z,99232.73
2019-02-05T14:43:07.084Z,99238.52
2019-02-05T14:45:38.859Z,99232.52
2019-02-05T14:48:10.431Z,99233.40
2019-02-05T14:50:41.349Z,99232.45
2019-02-05T14:53:12.268Z,99237.59
2019-02-05T14:55:42.737Z,99233.97
2019-02-05T14:58:15.382Z,99232.73
2019-02-05T15:00:45.538Z,99230.59
2019-02-05T15:03:16.139Z,99230.08
2019-02-05T15:05:47.555Z,99236.07
2019-02-05T15:08:30.042Z,99229.70
2019-02-05T15:11:02.472Z,99234.71
2019-02-05T15:13:33.267Z,99226.22
2019-02-05T15:16:03.498Z,99229.05
2019-02-05T15:18:33.883Z,99227.56
2019-02-05T15:21:04.762Z,99231.58
2019-02-05T15:23:35.149Z,99225.39
2019-02-05T15:26:05.432Z,99228.56
2019-02-05T15:28:37.195Z,99229.00
2019-02-05T15:31:07.419Z,99233.28
2019-02-05T15:33:47.570Z,99226.79
2019-02-05T15:36:33.563Z,99224.37
2019-02-05T15:39:32.663Z,99234.83
2019-02-05T15:42:02.993Z,99230.52
2019-02-05T15:44:33.140Z,99233.75
2019-02-05T15:47:03.304Z,99231.48
2019-02-05T15:49:33.888Z,99228.38
2019-02-05T15:52:04.785Z,99225.26
2019-02-05T15:54:35.397Z,99223.37
2019-02-05T15:57:08.389Z,99227.73
2019-02-05T15:59:41.942Z,99230.80
2019-02-05T16:02:13.201Z,99226.58
2019-02-05T16:04:43.733Z,99223.51
2019-02-05T16:07:14.236Z,99223.68
2019-02-05T16:09:44.823Z,99218.07
2019-02-05T16:12:15.264Z,99229.67
2019-02-05T16:14:45.462Z,99222.42
2019-02-05T16:17:19.557Z,99226.79
2019-02-05T16:20:13.367Z,99226.02
2019-02-05T16:22:43.586Z,99227.09
2019-02-05T16:25:14.477Z,99233.59
2019-02-05T16:27:44.806Z,99235.36
2019-02-05T16:30:18.339Z,99238.89
2019-02-05T16:32:48.858Z,99240.49
2019-02-05T16:35:19.264Z,99237.16
2019-02-05T16:37:49.683Z,99236.45
2019-02-05T16:40:22.242Z,99239.89
2019-02-05T16:43:00.361Z,99246.31
2019-02-05T16:45:31.101Z,99254.70
2019-02-05T16:48:02.651Z,99253.87
2019-02-05T16:50:35.539Z,99251.84
2019-02-05T16:53:06.768Z,99256.15
2019-02-05T16:55:37.147Z,99257.08
2019-02-05T16:58:08.833Z,99261.41
2019-02-05T17:00:39.171Z,99263.56
2019-02-05T17:03:10.197Z,99260.69
2019-02-05T17:05:43.893Z,99263.73
2019-02-05T17:08:14.341Z,99262.41
2019-02-05T17:10:44.550Z,99262.04
2019-02-05T17:13:14.944Z,99260.91
2019-02-05T17:15:45.268Z,99265.28
2019-02-05T17:18:23.334Z,99264.92
2019-02-05T17:20:50.170Z,99263.25
2019-02-05T17:23:20.374Z,99260.27
2019-02-05T17:25:50.888Z,99260.27
2019-02-05T17:28:24.305Z,99258.61
2019-02-05T17:30:54.484Z,99255.20
2019-02-05T17:33:24.764Z,99259.06
2019-02-05T17:35:55.310Z,99257.41
2019-02-05T17:38:26.171Z,99256.16
2019-02-05T17:40:56.391Z,99256.21
2019-02-05T17:43:26.680Z,99262.73
2019-02-05T17:45:56.900Z,99260.59
2019-02-05T17:48:28.308Z,99260.63
2019-02-05T17:51:22.364Z,99261.48
2019-02-05T17:53:52.928Z,99266.23
2019-02-05T17:56:23.292Z,99263.30
2019-02-05T17:58:53.585Z,99265.00
2019-02-05T18:01:27.754Z,99270.14
2019-02-05T18:03:58.085Z,99271.86
2019-02-05T18:06:28.761Z,99274.44
2019-02-05T18:08:59.109Z,99273.62
2019-02-05T18:11:29.420Z,99277.93
2019-02-05T18:13:59.717Z,99273.25
2019-02-05T18:16:30.190Z,99274.16
2019-02-05T18:19:00.907Z,99280.12
2019-02-05T18:21:31.276Z,99280.16
2019-02-05T18:24:04.896Z,99279.31
2019-02-05T18:26:35.376Z,99290.91
2019-02-05T18:29:06.044Z,99281.45
2019-02-05T18:31:36.576Z,99288.34
2019-02-05T18:34:06.917Z,99291.33
2019-02-05T18:36:37.189Z,99292.63
2019-02-05T18:39:09.623Z,99294.37
2019-02-05T18:41:41.869Z,99291.83
2019-02-05T18:44:12.254Z,99291.40
2019-02-05T18:46:43.987Z,99300.00
2019-02-05T18:49:14.197Z,99298.67
2019-02-05T18:51:45.098Z,99296.11
2019-02-05T18:54:15.900Z,99290.13
2019-02-05T18:56:46.228Z,99296.55
2019-02-05T18:59:16.877Z,99299.99
2019-02-05T19:01:48.557Z,99299.14
2019-02-05T19:04:18.998Z,99296.98
2019-02-05T19:06:55.292Z,99293.98
2019-02-05T19:09:27.512Z,99291.87
2019-02-05T19:12:06.485Z,99290.59
2019-02-05T19:14:37.532Z,99295.72
2019-02-05T19:17:10.093Z,99293.15
2019-02-05T19:19:43.352Z,99294.86
2019-02-05T19:22:15.413Z,99298.73
2019-02-05T19:25:03.182Z,99302.15
2019-02-05T19:27:50.070Z,99297.02
2019-02-05T19:30:22.913Z,99307.31
2019-02-05T19:32:56.298Z,99304.73
2019-02-05T19:35:29.670Z,99296.58
2019-02-05T19:38:01.618Z,99302.16
2019-02-05T19:40:32.806Z,99297.89
2019-02-05T19:43:04.392Z,99296.58
2019-02-05T19:46:09.017Z,99305.58
2019-02-05T19:48:49.325Z,99302.59
2019-02-05T19:51:21.293Z,99296.16
2019-02-05T19:53:53.973Z,99298.30
2019-02-05T19:56:37.906Z,99301.32
2019-02-05T19:59:01.160Z,99298.31
2019-02-05T20:01:47.346Z,99296.58
2019-02-05T20:04:21.407Z,99296.17
2019-02-05T20:06:54.696Z,99300.03
2019-02-05T20:09:28.016Z,99296.16
2019-02-05T20:12:01.678Z,99296.16
2019-02-05T20:14:34.345Z,99295.70
2019-02-05T20:17:06.286Z,99294.86
2019-02-05T20:19:36.820Z,99296.16
2019-02-05T20:22:09.324Z,99285.03
2019-02-05T20:24:41.099Z,99293.14
2019-02-05T20:27:13.535Z,99291.00
2019-02-05T20:29:48.493Z,99288.44
2019-02-05T20:32:27.956Z,99285.00
2019-02-05T20:35:08.926Z,99285.45
2019-02-05T20:37:42.599Z,99277.31
2019-02-05T20:40:36.117Z,99277.31
2019-02-05T20:43:07.004Z,99280.30
2019-02-05T20:45:39.800Z,99282.88
2019-02-05T20:48:25.682Z,99282.88
2019-02-05T20:50:57.461Z,99288.00
2019-02-05T20:53:32.228Z,99287.60
2019-02-05T20:56:04.956Z,99287.13
2019-02-05T20:58:35.630Z,99285.44
2019-02-05T21:01:06.823Z,99288.00
2019-02-05T21:03:42.115Z,99281.17
2019-02-05T21:06:13.046Z,99284.16
2019-02-05T21:08:43.275Z,99287.16
2019-02-05T21:11:16.256Z,99284.15
2019-02-05T21:13:47.209Z,99284.58
2019-02-05T21:16:17.561Z,99285.02
2019-02-05T21:18:47.881Z,99287.15
2019-02-05T21:21:18.097Z,99295.73
2019-02-05T21:23:50.206Z,99303.86
2019-02-05T21:26:21.502Z,99302.58
2019-02-05T21:28:51.838Z,99302.10
2019-02-05T21:31:22.525Z,99306.39
2019-02-05T21:33:54.194Z,99306.81
2019-02-05T21:36:25.317Z,99307.64
2019-02-05T21:38:55.710Z,99310.64
2019-02-05T21:41:26.201Z,99315.35
2019-02-05T21:43:56.715Z,99317.09
2019-02-05T21:46:27.009Z,99314.52
2019-02-05T21:48:59.619Z,99317.53
2019-02-05T21:51:40.202Z,99321.79
2019-02-05T21:54:02.812Z,99311.94
2019-02-05T21:56:34.318Z,99309.81
2019-02-05T21:59:07.604Z,99317.52
2019-02-05T22:01:39.165Z,99315.36
2019-02-05T22:04:10.206Z,99315.77
2019-02-05T22:06:40.775Z,99313.20
2019-02-05T22:09:13.806Z,99311.03
2019-02-05T22:11:44.543Z,99310.61
2019-02-05T22:14:20.107Z,99309.34
2019-02-05T22:16:53.738Z,99310.16
2019-02-05T22:19:25.799Z,99301.59
2019-02-05T22:21:56.128Z,99304.59
2019-02-05T22:24:28.583Z,99299.04
